createdAt,value
2022-12-05T00:01:44.772Z,8.91
2022-12-05T00:04:15.159Z,8.94
2022-12-05T00:06:43.609Z,8.86
2022-12-05T00:09:13.898Z,8.79
2022-12-05T00:11:44.331Z,8.86
2022-12-05T00:14:13.310Z,8.98
2022-12-05T00:16:44.975Z,8.98
2022-12-05T00:19:16.120Z,8.95
2022-12-05T00:21:44.462Z,9.08
2022-12-05T00:24:15.954Z,9.02
2022-12-05T00:26:44.847Z,8.94
2022-12-05T00:29:12.935Z,8.91
2022-12-05T00:31:40.646Z,8.86
2022-12-05T00:34:08.248Z,8.87
2022-12-05T00:36:37.199Z,8.93
2022-12-05T00:39:11.692Z,8.91
2022-12-05T00:41:39.573Z,8.87
2022-12-05T00:44:07.379Z,8.76
2022-12-05T00:46:36.647Z,8.84
2022-12-05T00:49:07.497Z,8.86
2022-12-05T00:51:39.188Z,8.85
2022-12-05T00:54:14.996Z,8.89
2022-12-05T00:56:44.400Z,8.83
2022-12-05T00:59:18.679Z,8.85
2022-12-05T01:01:48.729Z,8.86
2022-12-05T01:04:23.807Z,8.84
2022-12-05T01:06:56.428Z,8.85
2022-12-05T01:09:25.568Z,8.94
2022-12-05T01:11:53.440Z,8.88
2022-12-05T01:14:24.381Z,8.86
2022-12-05T01:16:55.196Z,8.94
2022-12-05T01:19:27.897Z,9.11
2022-12-05T01:21:56.730Z,9.09
2022-12-05T01:24:26.073Z,9.04
2022-12-05T01:26:54.797Z,8.92
2022-12-05T01:29:24.788Z,8.99
2022-12-05T01:31:52.849Z,9.14
2022-12-05T01:34:20.987Z,9.02
2022-12-05T01:36:49.212Z,8.92
2022-12-05T01:39:17.419Z,8.80
2022-12-05T01:41:48.501Z,8.84
2022-12-05T01:44:15.986Z,8.87
2022-12-05T01:46:50.390Z,8.83
2022-12-05T01:49:23.006Z,8.88
2022-12-05T01:52:20.869Z,8.88
2022-12-05T01:54:52.148Z,8.81
2022-12-05T01:57:19.754Z,8.79
2022-12-05T01:59:53.600Z,8.86
2022-12-05T02:02:21.693Z,8.72
2022-12-05T02:05:06.547Z,8.85
2022-12-05T02:07:35.663Z,8.93
2022-12-05T02:10:03.597Z,9.10
2022-12-05T02:12:31.295Z,9.10
2022-12-05T02:15:19.576Z,9.04
2022-12-05T02:17:53.157Z,9.05
2022-12-05T02:20:30.839Z,8.98
2022-12-05T02:23:34.949Z,9.13
2022-12-05T02:26:05.066Z,9.03
2022-12-05T02:29:32.090Z,8.93
2022-12-05T02:32:16.913Z,8.84
2022-12-05T02:35:12.463Z,8.92
2022-12-05T02:38:11.304Z,8.83
2022-12-05T02:40:55.420Z,8.77
2022-12-05T02:43:44.244Z,8.78
2022-12-05T02:46:23.775Z,8.81
2022-12-05T02:49:00.585Z,8.82
2022-12-05T02:51:33.933Z,8.83
2022-12-05T02:54:07.423Z,8.85
2022-12-05T02:56:38.093Z,8.75
2022-12-05T02:59:05.644Z,8.72
2022-12-05T03:01:33.745Z,8.76
2022-12-05T03:04:05.126Z,8.74
2022-12-05T03:06:42.116Z,8.72
2022-12-05T03:09:25.927Z,8.67
2022-12-05T03:12:31.375Z,8.70
2022-12-05T03:15:04.101Z,8.73
2022-12-05T03:17:41.470Z,8.70
2022-12-05T03:20:31.995Z,8.76
2022-12-05T03:23:20.705Z,8.77
2022-12-05T03:26:25.133Z,8.72
2022-12-05T03:29:11.955Z,8.71
2022-12-05T03:31:47.858Z,8.71
2022-12-05T03:34:31.494Z,8.81
2022-12-05T03:37:06.298Z,8.72
2022-12-05T03:39:39.316Z,8.68
2022-12-05T03:42:24.199Z,8.62
2022-12-05T03:45:34.707Z,8.59
2022-12-05T03:48:36.708Z,8.67
2022-12-05T03:51:07.969Z,8.69
2022-12-05T03:54:21.656Z,8.77
2022-12-05T03:57:00.140Z,8.69
2022-12-05T04:00:01.232Z,8.74
2022-12-05T04:03:09.715Z,8.83
2022-12-05T04:05:56.728Z,8.79
2022-12-05T04:08:35.903Z,8.66
2022-12-05T04:11:13.881Z,8.67
2022-12-05T04:13:56.154Z,8.68
2022-12-05T04:17:03.379Z,8.58
2022-12-05T04:20:30.152Z,8.66
2022-12-05T04:22:58.306Z,8.70
2022-12-05T04:25:36.147Z,8.72
2022-12-05T04:28:22.175Z,8.69
2022-12-05T04:31:18.402Z,8.65
2022-12-05T04:33:50.833Z,8.72
2022-12-05T04:36:50.402Z,8.78
2022-12-05T04:39:29.440Z,8.72
2022-12-05T04:42:06.680Z,8.73
2022-12-05T04:44:42.937Z,8.85
2022-12-05T04:47:14.924Z,8.92
2022-12-05T04:49:53.682Z,8.96
2022-12-05T04:52:23.074Z,8.91
2022-12-05T04:55:01.518Z,8.83
2022-12-05T04:57:36.947Z,8.80
2022-12-05T05:00:09.605Z,8.80
2022-12-05T05:03:00.981Z,8.79
2022-12-05T05:05:29.912Z,8.79
2022-12-05T05:07:57.692Z,8.78
2022-12-05T05:10:42.372Z,8.81
2022-12-05T05:13:09.829Z,8.69
2022-12-05T05:15:37.327Z,8.73
2022-12-05T05:18:05.089Z,8.68
2022-12-05T05:20:32.597Z,8.74
2022-12-05T05:23:00.139Z,8.71
2022-12-05T05:25:27.719Z,8.78
2022-12-05T05:27:57.348Z,8.74
2022-12-05T05:30:25.786Z,8.71
2022-12-05T05:32:54.051Z,8.79
2022-12-05T05:35:21.996Z,8.85
2022-12-05T05:37:49.487Z,8.89
2022-12-05T05:40:17.436Z,8.81
2022-12-05T05:42:47.575Z,8.79
2022-12-05T05:45:16.319Z,8.80
2022-12-05T05:47:44.342Z,8.86
2022-12-05T05:50:16.434Z,8.87
2022-12-05T05:52:48.872Z,8.85
2022-12-05T05:55:16.365Z,8.80
2022-12-05T05:57:43.840Z,8.81
2022-12-05T06:00:12.792Z,8.84
2022-12-05T06:02:40.489Z,8.79
2022-12-05T06:05:08.745Z,8.78
2022-12-05T06:07:36.283Z,8.93
2022-12-05T06:10:05.285Z,8.97
2022-12-05T06:12:32.925Z,8.96
2022-12-05T06:15:00.338Z,8.98
2022-12-05T06:17:27.759Z,8.97
2022-12-05T06:19:55.610Z,9.08
2022-12-05T06:22:23.576Z,9.07
2022-12-05T06:24:51.846Z,9.06
2022-12-05T06:27:19.253Z,9.05
2022-12-05T06:29:46.706Z,8.96
2022-12-05T06:32:14.198Z,9.00
2022-12-05T06:34:41.768Z,8.91
2022-12-05T06:37:09.436Z,8.95
2022-12-05T06:39:36.951Z,9.01
2022-12-05T06:42:04.566Z,9.17
2022-12-05T06:44:32.293Z,9.13
2022-12-05T06:46:59.757Z,9.17
2022-12-05T06:49:37.450Z,9.12
2022-12-05T06:52:05.797Z,9.06
2022-12-05T06:54:33.416Z,9.35
2022-12-05T06:57:00.915Z,9.62
2022-12-05T06:59:31.429Z,9.54
2022-12-05T07:01:58.947Z,9.42
2022-12-05T07:04:26.571Z,9.32
2022-12-05T07:06:56.442Z,9.24
2022-12-05T07:09:45.170Z,9.24
2022-12-05T07:12:15.426Z,9.35
2022-12-05T07:14:48.783Z,9.19
2022-12-05T07:17:21.663Z,9.29
2022-12-05T07:19:53.358Z,9.24
2022-12-05T07:22:22.904Z,9.33
2022-12-05T07:24:53.259Z,9.35
2022-12-05T07:27:26.798Z,9.31
2022-12-05T07:29:55.247Z,9.30
2022-12-05T07:32:22.906Z,9.26
2022-12-05T07:34:55.019Z,9.40
2022-12-05T07:37:23.948Z,9.36
2022-12-05T07:39:55.419Z,9.53
2022-12-05T07:42:26.089Z,9.76
2022-12-05T07:44:53.642Z,9.57
2022-12-05T07:47:21.229Z,9.56
2022-12-05T07:49:48.880Z,9.55
2022-12-05T07:52:16.369Z,9.51
2022-12-05T07:54:43.900Z,9.51
2022-12-05T07:57:11.438Z,9.56
2022-12-05T07:59:38.939Z,9.66
2022-12-05T08:02:06.943Z,9.67
2022-12-05T08:04:34.462Z,9.59
2022-12-05T08:07:01.913Z,9.74
2022-12-05T08:09:29.467Z,9.56
2022-12-05T08:11:56.886Z,9.76
2022-12-05T08:14:24.490Z,9.67
2022-12-05T08:16:51.985Z,9.62
2022-12-05T08:19:19.531Z,9.72
2022-12-05T08:21:47.197Z,9.86
2022-12-05T08:24:15.049Z,9.97
2022-12-05T08:26:42.576Z,9.91
2022-12-05T08:29:14.082Z,9.88
2022-12-05T08:31:48.124Z,9.94
2022-12-05T08:34:18.010Z,10.21
2022-12-05T08:36:46.212Z,10.13
2022-12-05T08:39:17.354Z,10.01
2022-12-05T08:41:46.512Z,10.21
2022-12-05T08:44:17.092Z,10.16
2022-12-05T08:46:47.565Z,10.43
2022-12-05T08:49:15.287Z,10.50
2022-12-05T08:51:43.937Z,10.52
2022-12-05T08:54:11.772Z,10.40
2022-12-05T08:56:39.641Z,10.69
2022-12-05T08:59:07.967Z,10.78
2022-12-05T09:01:38.769Z,10.54
2022-12-05T09:04:07.775Z,10.72
2022-12-05T09:06:36.088Z,10.83
2022-12-05T09:09:07.948Z,10.75
2022-12-05T09:11:41.559Z,10.98
2022-12-05T09:14:09.296Z,11.87
2022-12-05T09:16:39.498Z,12.69
2022-12-05T09:19:21.010Z,13.06
2022-12-05T09:21:48.829Z,13.12
2022-12-05T09:24:16.326Z,12.70
2022-12-05T09:26:44.117Z,12.54
2022-12-05T09:29:17.709Z,12.29
2022-12-05T09:31:48.682Z,12.79
2022-12-05T09:34:18.542Z,13.28
2022-12-05T09:36:55.686Z,13.83
2022-12-05T09:39:26.127Z,14.11
2022-12-05T09:42:20.825Z,14.47
2022-12-05T09:45:15.271Z,14.82
2022-12-05T09:47:46.534Z,14.74
2022-12-05T09:50:28.541Z,14.22
2022-12-05T09:53:09.635Z,14.03
2022-12-05T09:55:47.507Z,13.66
2022-12-05T09:58:27.855Z,13.42
2022-12-05T10:01:11.839Z,13.22
2022-12-05T10:03:53.121Z,13.10
2022-12-05T10:06:47.765Z,13.37
2022-12-05T10:09:38.892Z,13.36
2022-12-05T10:12:44.001Z,13.41
2022-12-05T10:15:30.286Z,13.31
2022-12-05T10:18:04.750Z,13.46
2022-12-05T10:21:01.560Z,13.18
2022-12-05T10:23:57.027Z,13.45
2022-12-05T10:26:36.751Z,13.55
2022-12-05T10:29:29.748Z,13.51
2022-12-05T10:32:14.389Z,13.05
2022-12-05T10:34:45.435Z,12.81
2022-12-05T10:37:21.894Z,12.89
2022-12-05T10:39:52.104Z,12.85
2022-12-05T10:42:31.876Z,12.43
2022-12-05T10:45:07.599Z,12.71
2022-12-05T10:47:36.185Z,12.95
2022-12-05T10:50:35.660Z,12.92
2022-12-05T10:53:08.098Z,12.65
2022-12-05T10:55:54.752Z,12.59
2022-12-05T10:58:30.917Z,12.13
2022-12-05T11:01:14.751Z,11.91
2022-12-05T11:03:44.469Z,12.35
2022-12-05T11:06:25.994Z,12.09
2022-12-05T11:09:21.296Z,12.41
2022-12-05T11:12:27.800Z,12.00
2022-12-05T11:15:25.011Z,11.99
2022-12-05T11:17:58.769Z,12.20
2022-12-05T11:20:26.239Z,12.64
2022-12-05T11:22:56.586Z,13.02
2022-12-05T11:25:38.006Z,12.70
2022-12-05T11:28:17.390Z,12.48
2022-12-05T11:31:16.804Z,12.16
2022-12-05T11:33:44.605Z,12.19
2022-12-05T11:36:24.440Z,12.14
2022-12-05T11:38:52.246Z,12.00
2022-12-05T11:42:01.543Z,11.91
2022-12-05T11:45:00.872Z,12.10
2022-12-05T11:47:56.853Z,12.01
2022-12-05T11:51:05.170Z,12.01
2022-12-05T11:53:56.731Z,12.09
2022-12-05T11:56:39.303Z,12.01
2022-12-05T11:59:38.510Z,12.15
2022-12-05T12:02:52.666Z,12.30
2022-12-05T12:05:47.535Z,12.42
2022-12-05T12:08:27.903Z,12.19
2022-12-05T12:11:17.533Z,12.03
2022-12-05T12:13:56.593Z,11.88
2022-12-05T12:17:10.251Z,11.76
2022-12-05T12:19:58.696Z,11.72
2022-12-05T12:22:44.686Z,11.72
2022-12-05T12:25:39.539Z,12.07
2022-12-05T12:28:24.814Z,12.44
2022-12-05T12:31:12.789Z,12.13
2022-12-05T12:34:05.892Z,12.10
2022-12-05T12:37:04.408Z,11.92
2022-12-05T12:39:59.188Z,11.85
2022-12-05T12:42:46.302Z,11.92
2022-12-05T12:45:35.144Z,11.91
2022-12-05T12:48:23.668Z,11.73
2022-12-05T12:50:54.830Z,11.98
2022-12-05T12:53:34.303Z,11.71
2022-12-05T12:56:48.975Z,11.44
2022-12-05T12:59:46.492Z,11.44
2022-12-05T13:02:51.399Z,11.33
2022-12-05T13:05:35.217Z,11.41
2022-12-05T13:08:12.678Z,11.56
2022-12-05T13:10:47.749Z,11.63
2022-12-05T13:13:25.082Z,11.46
2022-12-05T13:16:00.760Z,11.58
2022-12-05T13:18:28.951Z,11.55
2022-12-05T13:21:00.482Z,11.57
2022-12-05T13:23:33.043Z,11.77
2022-12-05T13:26:02.540Z,11.81
2022-12-05T13:28:46.846Z,11.78
2022-12-05T13:31:18.095Z,11.89
2022-12-05T13:33:51.431Z,11.95
2022-12-05T13:36:40.829Z,12.05
2022-12-05T13:39:47.248Z,11.71
2022-12-05T13:42:25.109Z,11.89
2022-12-05T13:45:05.469Z,11.86
2022-12-05T13:48:00.740Z,12.10
2022-12-05T13:51:19.268Z,11.86
2022-12-05T13:54:19.319Z,11.89
2022-12-05T13:57:02.067Z,11.81
2022-12-05T14:00:10.138Z,11.87
2022-12-05T14:02:43.547Z,12.08
2022-12-05T14:05:19.604Z,11.87
2022-12-05T14:07:52.544Z,11.76
2022-12-05T14:10:29.400Z,11.63
2022-12-05T14:13:21.266Z,11.72
2022-12-05T14:15:51.363Z,11.95
2022-12-05T14:18:44.393Z,11.48
2022-12-05T14:21:26.240Z,11.51
2022-12-05T14:24:20.557Z,11.18
2022-12-05T14:27:11.759Z,11.14
2022-12-05T14:30:08.421Z,11.00
2022-12-05T14:32:41.127Z,11.04
2022-12-05T14:35:20.217Z,11.07
2022-12-05T14:38:04.995Z,11.08
2022-12-05T14:40:39.132Z,10.95
2022-12-05T14:43:28.158Z,11.08
2022-12-05T14:46:04.097Z,11.06
2022-12-05T14:48:47.780Z,10.87
2022-12-05T14:51:33.499Z,11.07
2022-12-05T14:54:20.503Z,11.31
2022-12-05T14:56:54.586Z,11.34
2022-12-05T14:59:30.167Z,11.11
2022-12-05T15:02:02.240Z,11.00
2022-12-05T15:04:59.185Z,11.06
2022-12-05T15:07:36.588Z,11.29
2022-12-05T15:10:33.858Z,11.36
2022-12-05T15:13:11.270Z,11.35
2022-12-05T15:15:43.166Z,10.98
2022-12-05T15:18:39.822Z,11.08
2022-12-05T15:21:33.658Z,10.68
2022-12-05T15:24:13.744Z,10.75
2022-12-05T15:26:58.088Z,10.76
2022-12-05T15:29:33.136Z,10.53
2022-12-05T15:32:11.634Z,10.77
2022-12-05T15:34:47.739Z,10.70
2022-12-05T15:37:24.043Z,11.30
2022-12-05T15:40:04.911Z,10.87
2022-12-05T15:42:39.820Z,11.35
2022-12-05T15:45:15.811Z,10.82
2022-12-05T15:47:52.921Z,10.98
2022-12-05T15:50:52.359Z,10.75
2022-12-05T15:53:43.948Z,10.84
2022-12-05T15:56:45.984Z,10.33
2022-12-05T15:59:23.419Z,10.11
2022-12-05T16:02:03.470Z,10.08
2022-12-05T16:04:43.706Z,10.04
2022-12-05T16:07:15.107Z,10.02
2022-12-05T16:09:45.373Z,10.05
2022-12-05T16:12:31.171Z,10.04
2022-12-05T16:15:05.400Z,10.00
2022-12-05T16:17:59.325Z,10.16
2022-12-05T16:20:36.335Z,10.41
2022-12-05T16:23:27.102Z,10.20
2022-12-05T16:26:12.124Z,10.13
2022-12-05T16:28:41.107Z,10.13
2022-12-05T16:31:14.645Z,10.17
2022-12-05T16:33:44.054Z,10.18
2022-12-05T16:36:38.558Z,10.15
2022-12-05T16:39:19.129Z,10.14
2022-12-05T16:41:47.834Z,10.22
2022-12-05T16:44:48.939Z,10.32
2022-12-05T16:47:46.760Z,10.21
2022-12-05T16:50:25.030Z,10.12
2022-12-05T16:53:10.110Z,10.14
2022-12-05T16:55:40.845Z,10.15
2022-12-05T16:58:33.328Z,10.18
2022-12-05T17:01:06.135Z,10.14
2022-12-05T17:03:39.694Z,10.17
2022-12-05T17:06:10.705Z,10.18
2022-12-05T17:09:00.818Z,10.21
2022-12-05T17:11:34.181Z,10.23
2022-12-05T17:14:03.454Z,10.24
2022-12-05T17:16:31.106Z,10.20
2022-12-05T17:19:03.234Z,10.23
2022-12-05T17:21:34.159Z,10.25
2022-12-05T17:24:02.381Z,10.23
2022-12-05T17:26:30.236Z,10.16
2022-12-05T17:28:57.728Z,10.18
2022-12-05T17:31:26.706Z,10.19
2022-12-05T17:33:55.523Z,10.28
2022-12-05T17:36:24.205Z,10.23
2022-12-05T17:38:51.726Z,10.18
2022-12-05T17:41:24.181Z,10.18
2022-12-05T17:43:53.565Z,10.21
2022-12-05T17:46:24.089Z,10.25
2022-12-05T17:48:52.991Z,10.23
2022-12-05T17:51:23.633Z,10.20
2022-12-05T17:53:53.111Z,10.16
2022-12-05T17:56:21.030Z,10.13
2022-12-05T17:58:50.080Z,10.14
2022-12-05T18:01:20.793Z,10.19
2022-12-05T18:03:52.229Z,10.23
2022-12-05T18:06:20.964Z,10.26
2022-12-05T18:08:49.815Z,10.29
2022-12-05T18:11:19.464Z,10.27
2022-12-05T18:13:47.518Z,10.27
2022-12-05T18:16:36.526Z,10.32
2022-12-05T18:19:04.141Z,10.41
2022-12-05T18:21:33.702Z,10.36
2022-12-05T18:24:01.880Z,10.25
2022-12-05T18:26:29.334Z,10.20
2022-12-05T18:28:58.971Z,10.17
2022-12-05T18:31:27.159Z,10.19
2022-12-05T18:34:01.980Z,10.10
2022-12-05T18:36:30.446Z,10.04
2022-12-05T18:39:01.918Z,9.96
2022-12-05T18:41:53.012Z,9.96
2022-12-05T18:44:29.874Z,9.88
2022-12-05T18:46:57.594Z,9.87
2022-12-05T18:49:26.466Z,9.85
2022-12-05T18:51:56.939Z,10.05
2022-12-05T18:54:24.562Z,10.02
2022-12-05T18:56:53.015Z,10.11
2022-12-05T18:59:22.914Z,10.09
2022-12-05T19:01:50.875Z,10.09
2022-12-05T19:04:21.625Z,10.00
2022-12-05T19:06:57.876Z,9.94
2022-12-05T19:09:30.162Z,9.99
2022-12-05T19:12:00.874Z,10.00
2022-12-05T19:14:33.177Z,9.94
2022-12-05T19:17:03.324Z,9.98
2022-12-05T19:19:31.965Z,10.03
2022-12-05T19:22:01.138Z,10.07
2022-12-05T19:24:30.984Z,10.12
2022-12-05T19:27:00.535Z,10.09
2022-12-05T19:29:29.301Z,10.10
2022-12-05T19:31:59.863Z,10.17
2022-12-05T19:34:27.581Z,10.17
2022-12-05T19:36:56.316Z,10.13
2022-12-05T19:39:30.408Z,10.05
2022-12-05T19:42:03.178Z,10.01
2022-12-05T19:44:31.079Z,10.09
2022-12-05T19:47:01.118Z,10.21
2022-12-05T19:49:30.421Z,10.26
2022-12-05T19:51:59.301Z,10.32
2022-12-05T19:54:28.699Z,10.40
2022-12-05T19:57:00.700Z,10.46
2022-12-05T19:59:29.125Z,10.48
2022-12-05T20:01:57.648Z,10.41
2022-12-05T20:04:27.485Z,10.37
2022-12-05T20:06:56.521Z,10.29
2022-12-05T20:09:28.962Z,10.20
2022-12-05T20:11:56.721Z,10.12
2022-12-05T20:14:27.974Z,10.13
2022-12-05T20:16:55.902Z,10.15
2022-12-05T20:19:26.542Z,10.16
2022-12-05T20:21:55.612Z,10.18
2022-12-05T20:24:23.268Z,10.30
2022-12-05T20:26:52.196Z,10.32
2022-12-05T20:29:20.720Z,10.32
2022-12-05T20:31:54.299Z,10.21
2022-12-05T20:34:22.289Z,10.13
2022-12-05T20:36:49.882Z,10.10
2022-12-05T20:39:18.361Z,10.07
2022-12-05T20:41:46.347Z,10.10
2022-12-05T20:44:18.278Z,10.06
2022-12-05T20:46:47.327Z,10.04
2022-12-05T20:49:16.350Z,10.04
2022-12-05T20:51:46.234Z,10.11
2022-12-05T20:54:18.263Z,10.15
2022-12-05T20:56:47.172Z,10.08
2022-12-05T20:59:15.057Z,10.15
2022-12-05T21:01:42.856Z,10.12
2022-12-05T21:04:12.410Z,10.14
2022-12-05T21:06:42.999Z,10.08
2022-12-05T21:09:16.167Z,10.09
2022-12-05T21:11:44.747Z,10.16
2022-12-05T21:14:12.518Z,10.40
2022-12-05T21:16:42.964Z,10.36
2022-12-05T21:19:11.703Z,10.23
2022-12-05T21:21:39.494Z,10.07
2022-12-05T21:24:09.361Z,10.04
2022-12-05T21:26:38.160Z,10.07
2022-12-05T21:29:10.639Z,10.14
2022-12-05T21:31:42.206Z,10.25
2022-12-05T21:34:20.489Z,10.44
2022-12-05T21:36:48.645Z,10.14
2022-12-05T21:39:16.560Z,10.00
2022-12-05T21:41:44.479Z,9.94
2022-12-05T21:44:14.845Z,9.90
2022-12-05T21:46:42.438Z,9.90
2022-12-05T21:49:10.106Z,9.94
2022-12-05T21:51:40.156Z,9.90
2022-12-05T21:54:07.747Z,9.94
2022-12-05T21:56:35.802Z,9.98
2022-12-05T21:59:03.236Z,9.90
2022-12-05T22:01:30.994Z,9.93
2022-12-05T22:04:00.002Z,9.95
2022-12-05T22:06:28.403Z,9.95
2022-12-05T22:08:56.574Z,9.92
2022-12-05T22:11:25.410Z,9.84
2022-12-05T22:13:53.391Z,9.85
2022-12-05T22:16:21.653Z,9.86
2022-12-05T22:18:49.916Z,9.80
2022-12-05T22:21:21.297Z,9.77
2022-12-05T22:23:49.830Z,9.77
2022-12-05T22:26:19.352Z,9.81
2022-12-05T22:28:47.965Z,9.83
2022-12-05T22:31:17.283Z,9.86
2022-12-05T22:33:46.181Z,9.87
2022-12-05T22:36:17.246Z,9.92
2022-12-05T22:38:47.544Z,9.96
2022-12-05T22:41:21.208Z,9.95
2022-12-05T22:43:53.493Z,10.01
2022-12-05T22:46:22.152Z,9.92
2022-12-05T22:48:51.193Z,9.78
2022-12-05T22:51:21.713Z,9.79
2022-12-05T22:53:53.288Z,9.83
2022-12-05T22:56:22.740Z,9.90
2022-12-05T22:58:55.442Z,10.07
2022-12-05T23:01:28.237Z,10.04
2022-12-05T23:03:59.850Z,9.88
2022-12-05T23:06:29.072Z,9.75
2022-12-05T23:08:57.333Z,9.76
2022-12-05T23:11:26.697Z,9.70
2022-12-05T23:14:01.448Z,9.69
2022-12-05T23:16:32.628Z,9.80
2022-12-05T23:19:04.315Z,9.82
2022-12-05T23:21:39.091Z,9.76
2022-12-05T23:24:10.459Z,9.69
2022-12-05T23:26:43.212Z,9.69
2022-12-05T23:29:12.485Z,9.64
2022-12-05T23:31:41.185Z,9.61
2022-12-05T23:34:09.379Z,9.63
2022-12-05T23:36:36.919Z,9.67
2022-12-05T23:39:06.036Z,9.76
2022-12-05T23:41:33.844Z,9.75
2022-12-05T23:44:01.339Z,9.63
2022-12-05T23:46:30.058Z,9.60
2022-12-05T23:48:58.248Z,9.63
2022-12-05T23:51:29.793Z,9.54
2022-12-05T23:54:01.426Z,9.61
2022-12-05T23:56:34.091Z,9.66
2022-12-05T23:59:03.946Z,9.65
